Time;durP1;ratioP1;P1;durP2;ratioP2;P2;SDS_P1;SDS_P2;PMS_P1;PMS_P2;Temp;Humidity;BMP_temperature;BMP_pressure;BME280_temperature;BME280_humidity;BME280_pressure;Samples;Min_cycle;Max_cycle;Signal;HPM_P1;HPM_P2
2021/06/07 00:01:19;;;;;;;4.22;3.10;;;18.20;67.10;;;;;;5096950;28;20044;-40
2021/06/07 00:03:46;;;;;;;6.65;3.35;;;18.20;67.00;;;;;;5096757;28;20076;-40
2021/06/07 00:06:12;;;;;;;4.22;3.15;;;18.20;67.10;;;;;;5096799;28;20036;-39
2021/06/07 00:08:38;;;;;;;5.38;3.35;;;18.20;67.10;;;;;;5096632;28;20027;-39
2021/06/07 00:11:04;;;;;;;3.95;3.33;;;18.20;67.20;;;;;;5096383;28;20032;-39
2021/06/07 00:13:31;;;;;;;6.72;3.83;;;18.20;67.20;;;;;;5096829;28;20442;-46
2021/06/07 00:15:57;;;;;;;6.65;3.08;;;18.20;67.30;;;;;;5096651;28;20048;-42
2021/06/07 00:18:25;;;;;;;6.03;3.40;;;18.10;67.10;;;;;;5096418;28;20085;-43
2021/06/07 00:21:03;;;;;;;3.67;2.90;;;18.10;67.20;;;;;;5096679;28;20035;-40
2021/06/07 00:23:29;;;;;;;5.40;2.90;;;18.10;67.70;;;;;;5096321;28;20020;-43
2021/06/07 00:25:56;;;;;;;5.05;3.17;;;18.10;67.10;;;;;;5096521;28;20307;-42
2021/06/07 00:28:22;;;;;;;4.57;2.70;;;18.10;67.30;;;;;;5096158;28;20103;-40
2021/06/07 00:30:48;;;;;;;4.25;3.25;;;18.10;67.50;;;;;;5096055;28;20031;-39
2021/06/07 00:33:14;;;;;;;4.78;2.60;;;18.10;68.10;;;;;;5096066;28;20028;-39
2021/06/07 00:35:40;;;;;;;4.68;2.92;;;18.00;68.10;;;;;;5096294;28;20064;-41
2021/06/07 00:38:06;;;;;;;4.30;2.85;;;18.10;68.60;;;;;;5096388;28;20039;-42
2021/06/07 00:40:32;;;;;;;4.85;3.55;;;18.10;68.80;;;;;;5096004;28;20035;-44
2021/06/07 00:42:58;;;;;;;3.80;2.80;;;18.10;68.90;;;;;;5096303;28;20032;-42
2021/06/07 00:45:30;;;;;;;4.38;3.17;;;18.10;69.00;;;;;;5095605;28;20024;-39
2021/06/07 00:47:58;;;;;;;4.10;3.10;;;18.00;69.00;;;;;;5095672;28;20036;-39
2021/06/07 00:50:51;;;;;;;4.47;3.38;;;18.00;69.10;;;;;;5095229;28;20416;-41
2021/06/07 00:53:18;;;;;;;7.68;3.45;;;18.00;69.00;;;;;;5095764;28;20081;-45
2021/06/07 00:55:55;;;;;;;5.85;3.30;;;17.90;69.10;;;;;;5095862;28;20039;-39
2021/06/07 00:58:23;;;;;;;4.60;3.42;;;17.90;69.20;;;;;;5095645;28;20032;-39
2021/06/07 01:00:49;;;;;;;7.72;3.63;;;17.90;69.30;;;;;;5095850;28;20029;-44
2021/06/07 01:03:16;;;;;;;4.90;3.33;;;17.90;69.50;;;;;;5095599;28;20031;-42
2021/06/07 01:05:44;;;;;;;5.57;3.20;;;17.80;69.50;;;;;;5095732;28;20071;-42
2021/06/07 01:08:11;;;;;;;6.38;3.58;;;17.80;69.50;;;;;;5095577;28;20024;-42
2021/06/07 01:10:36;;;;;;;6.90;3.67;;;17.80;69.80;;;;;;5095696;28;20031;-39
2021/06/07 01:13:02;;;;;;;4.38;3.38;;;17.80;70.00;;;;;;5095538;28;20028;-40
2021/06/07 01:15:28;;;;;;;6.50;3.72;;;17.80;70.00;;;;;;5095283;28;20055;-42
2021/06/07 01:17:54;;;;;;;4.20;3.55;;;17.80;70.20;;;;;;5095991;28;20119;-39
2021/06/07 01:20:22;;;;;;;4.65;3.38;;;17.70;70.20;;;;;;5095599;28;20149;-39
2021/06/07 01:22:49;;;;;;;6.50;3.67;;;17.70;70.30;;;;;;5095807;28;20031;-39
2021/06/07 01:25:28;;;;;;;5.15;3.65;;;17.70;70.30;;;;;;5095200;28;20036;-39
2021/06/07 01:27:55;;;;;;;5.90;3.38;;;17.80;70.50;;;;;;5095640;28;20412;-43
2021/06/07 01:30:25;;;;;;;9.73;3.25;;;17.70;70.40;;;;;;5095201;28;20085;-39
2021/06/07 01:32:51;;;;;;;5.05;3.35;;;17.70;70.50;;;;;;5095558;28;20024;-40
2021/06/07 01:35:17;;;;;;;7.15;3.30;;;17.70;70.60;;;;;;5095241;28;20035;-39
2021/06/07 01:37:44;;;;;;;4.57;3.10;;;17.70;70.80;;;;;;5095502;28;20036;-43
2021/06/07 01:40:19;;;;;;;4.32;3.10;;;17.70;70.80;;;;;;5094342;28;20028;-46
2021/06/07 01:42:45;;;;;;;5.30;3.55;;;17.70;70.80;;;;;;5095520;28;20032;-44
2021/06/07 01:45:13;;;;;;;5.70;3.15;;;17.70;70.90;;;;;;5095542;28;20035;-42
2021/06/07 01:47:40;;;;;;;4.78;3.55;;;17.70;71.00;;;;;;5095795;28;20028;-39
2021/06/07 01:50:07;;;;;;;4.45;3.25;;;17.70;71.20;;;;;;5095736;28;20028;-39
2021/06/07 01:52:33;;;;;;;4.80;3.22;;;17.70;71.40;;;;;;5095005;28;20043;-42
2021/06/07 01:55:00;;;;;;;4.70;3.20;;;17.70;71.40;;;;;;5095407;28;20027;-42
2021/06/07 01:57:26;;;;;;;4.88;3.47;;;17.70;71.60;;;;;;5095659;28;20085;-40
2021/06/07 01:59:52;;;;;;;4.70;3.10;;;17.70;71.70;;;;;;5096429;28;20062;-40
2021/06/07 02:02:17;;;;;;;5.25;2.97;;;17.70;71.80;;;;;;5097945;28;20032;-40
2021/06/07 02:04:43;;;;;;;4.20;3.00;;;17.70;71.90;;;;;;5099025;28;20032;-42
2021/06/07 02:07:09;;;;;;;4.65;3.03;;;17.70;72.00;;;;;;5099091;28;20036;-42
2021/06/07 02:09:41;;;;;;;3.97;2.67;;;17.70;72.10;;;;;;5099029;28;20054;-41
2021/06/07 02:12:07;;;;;;;3.60;2.78;;;17.70;72.10;;;;;;5098526;28;20414;-42
2021/06/07 02:14:34;;;;;;;5.28;3.20;;;17.70;72.40;;;;;;5098606;28;20048;-42
2021/06/07 02:17:00;;;;;;;4.30;2.95;;;17.70;72.40;;;;;;5099087;28;20339;-40
2021/06/07 02:19:26;;;;;;;4.13;2.97;;;17.80;72.70;;;;;;5098980;28;20024;-39
2021/06/07 02:21:51;;;;;;;3.72;2.78;;;17.80;72.70;;;;;;5098879;28;20324;-39
2021/06/07 02:24:17;;;;;;;5.72;3.30;;;17.80;72.90;;;;;;5098523;28;20103;-45
2021/06/07 02:26:43;;;;;;;3.90;3.03;;;17.80;73.00;;;;;;5098881;28;20040;-39
2021/06/07 02:29:11;;;;;;;3.70;3.10;;;17.80;73.00;;;;;;5098447;28;20020;-39
2021/06/07 02:31:38;;;;;;;7.32;3.75;;;17.80;73.10;;;;;;5098559;28;20032;-39
2021/06/07 02:34:08;;;;;;;6.70;3.70;;;17.80;73.50;;;;;;5098616;28;20024;-39
2021/06/07 02:36:36;;;;;;;8.13;3.30;;;17.80;73.50;;;;;;5097359;28;20039;-42
2021/06/07 02:39:05;;;;;;;5.70;3.30;;;17.80;73.40;;;;;;5098196;28;20039;-40
2021/06/07 02:41:31;;;;;;;4.47;3.13;;;17.80;73.50;;;;;;5098606;28;20028;-42
2021/06/07 02:43:56;;;;;;;6.97;3.88;;;17.90;73.50;;;;;;5098192;28;20035;-44
2021/06/07 02:46:22;;;;;;;9.93;3.60;;;17.90;73.60;;;;;;5098290;28;20089;-44
2021/06/07 02:48:48;;;;;;;6.32;3.60;;;17.90;73.60;;;;;;5098094;28;20017;-43
2021/06/07 02:51:15;;;;;;;5.93;3.80;;;17.90;73.50;;;;;;5098022;28;20089;-43
2021/06/07 02:53:41;;;;;;;3.90;3.20;;;17.90;73.30;;;;;;5098059;28;20024;-39
2021/06/07 02:56:08;;;;;;;8.13;4.10;;;17.90;73.20;;;;;;5097824;28;20040;-39
2021/06/07 02:58:33;;;;;;;5.13;3.83;;;17.90;73.40;;;;;;5097925;28;20059;-43
2021/06/07 03:01:07;;;;;;;4.57;3.45;;;17.90;73.30;;;;;;5097708;28;20055;-39
2021/06/07 03:03:33;;;;;;;6.93;3.42;;;17.90;73.30;;;;;;5097848;28;20028;-39
2021/06/07 03:05:59;;;;;;;5.38;3.40;;;17.80;73.30;;;;;;5098008;28;20032;-40
2021/06/07 03:08:30;;;;;;;5.93;3.75;;;17.90;73.40;;;;;;5097933;28;20312;-41
2021/06/07 03:10:59;;;;;;;7.25;4.38;;;17.90;73.50;;;;;;5097535;28;20052;-42
2021/06/07 03:13:26;;;;;;;9.73;4.55;;;17.90;73.50;;;;;;5097619;28;20442;-42
2021/06/07 03:15:54;;;;;;;5.15;3.90;;;17.90;73.50;;;;;;5097420;28;20343;-47
2021/06/07 03:18:20;;;;;;;7.43;4.47;;;17.80;73.40;;;;;;5097290;28;20060;-39
2021/06/07 03:20:46;;;;;;;8.13;4.40;;;17.80;73.50;;;;;;5097592;28;20427;-39
2021/06/07 03:23:17;;;;;;;6.47;4.22;;;17.80;73.60;;;;;;5097261;28;20067;-43
2021/06/07 03:25:45;;;;;;;4.53;3.60;;;17.80;73.80;;;;;;5097344;28;20036;-44
2021/06/07 03:28:12;;;;;;;6.32;4.10;;;17.80;73.70;;;;;;5097655;28;20097;-39
2021/06/07 03:30:38;;;;;;;8.32;4.45;;;17.80;74.00;;;;;;5097435;28;20020;-42
2021/06/07 03:33:06;;;;;;;7.70;4.53;;;17.80;74.00;;;;;;5097262;28;20261;-40
2021/06/07 03:35:32;;;;;;;8.63;4.90;;;17.90;74.20;;;;;;5097418;28;20040;-39
2021/06/07 03:37:58;;;;;;;7.60;4.13;;;17.90;74.20;;;;;;5097574;28;20369;-40
2021/06/07 03:40:31;;;;;;;7.43;4.22;;;17.90;74.00;;;;;;5095792;28;20107;-39
2021/06/07 03:42:57;;;;;;;7.38;5.00;;;17.90;73.90;;;;;;5096921;28;20049;-42
2021/06/07 03:45:22;;;;;;;9.73;4.65;;;17.90;74.30;;;;;;5096658;28;20116;-44
2021/06/07 03:47:49;;;;;;;11.25;5.13;;;17.90;74.40;;;;;;5097011;28;20070;-40
2021/06/07 03:50:18;;;;;;;9.88;5.28;;;18.00;74.30;;;;;;5096776;28;20459;-43
2021/06/07 03:52:44;;;;;;;8.30;4.50;;;18.00;74.40;;;;;;5097007;28;20115;-40
2021/06/07 03:55:12;;;;;;;6.88;4.00;;;18.00;74.30;;;;;;5096644;28;20109;-42
2021/06/07 03:57:38;;;;;;;9.55;5.10;;;18.00;74.30;;;;;;5096963;28;20055;-41
2021/06/07 04:00:09;;;;;;;5.70;4.15;;;18.00;74.40;;;;;;5096767;28;20085;-39
2021/06/07 04:02:36;;;;;;;6.97;4.22;;;18.10;74.50;;;;;;5096943;28;20132;-42
2021/06/07 04:05:02;;;;;;;10.60;5.47;;;18.10;74.30;;;;;;5096558;28;20320;-44
2021/06/07 04:07:28;;;;;;;10.50;4.60;;;18.10;74.40;;;;;;5097061;28;20381;-42
2021/06/07 04:09:53;;;;;;;9.25;5.10;;;18.20;74.20;;;;;;5096522;28;20308;-44
2021/06/07 04:12:19;;;;;;;8.23;4.55;;;18.20;74.10;;;;;;5096785;28;20099;-39
2021/06/07 04:14:44;;;;;;;9.13;4.70;;;18.20;74.00;;;;;;5096295;28;20048;-43
2021/06/07 04:17:10;;;;;;;8.57;5.20;;;18.20;74.00;;;;;;5096481;28;20157;-39
2021/06/07 04:19:36;;;;;;;9.10;4.68;;;18.20;74.10;;;;;;5096496;28;20027;-39
2021/06/07 04:22:02;;;;;;;6.95;4.70;;;18.30;74.10;;;;;;5096119;28;20042;-44
2021/06/07 04:24:27;;;;;;;10.07;4.90;;;18.30;74.10;;;;;;5095914;28;20145;-39
2021/06/07 04:26:53;;;;;;;8.38;4.55;;;18.30;74.10;;;;;;5096418;28;20043;-45
2021/06/07 04:29:19;;;;;;;5.50;3.90;;;18.30;74.20;;;;;;5096034;28;20012;-42
2021/06/07 04:31:45;;;;;;;7.20;4.25;;;18.40;74.70;;;;;;5096261;28;20043;-39
2021/06/07 04:34:10;;;;;;;10.98;4.95;;;18.40;74.20;;;;;;5096002;28;20034;-43
2021/06/07 04:36:36;;;;;;;8.10;4.60;;;18.50;74.20;;;;;;5096182;28;20028;-39
2021/06/07 04:39:05;;;;;;;11.23;5.25;;;18.60;74.30;;;;;;5095680;28;20032;-42
2021/06/07 04:41:31;;;;;;;11.15;5.40;;;18.60;74.10;;;;;;5095662;28;20036;-43
2021/06/07 04:43:56;;;;;;;10.38;6.65;;;18.70;73.70;;;;;;5095235;28;20024;-44
2021/06/07 04:46:22;;;;;;;8.93;5.53;;;18.70;73.60;;;;;;5095882;28;20028;-39
2021/06/07 04:48:48;;;;;;;9.95;5.25;;;18.70;73.60;;;;;;5095971;28;20304;-42
2021/06/07 04:51:14;;;;;;;7.78;4.50;;;18.80;73.70;;;;;;5095336;28;20058;-40
2021/06/07 04:53:39;;;;;;;7.55;5.05;;;18.90;73.70;;;;;;5095934;28;20027;-40
2021/06/07 04:56:05;;;;;;;10.05;4.80;;;18.90;73.60;;;;;;5095609;28;20031;-42
2021/06/07 04:58:31;;;;;;;14.38;5.40;;;18.90;73.50;;;;;;5094416;28;20420;-43
2021/06/07 05:01:00;;;;;;;9.43;4.75;;;19.00;73.50;;;;;;5095426;28;20034;-40
2021/06/07 05:03:26;;;;;;;6.10;3.95;;;19.10;73.20;;;;;;5095599;28;20039;-39
2021/06/07 05:05:54;;;;;;;7.72;5.00;;;19.10;72.90;;;;;;5095475;28;20028;-43
2021/06/07 05:08:20;;;;;;;7.07;4.18;;;19.20;72.90;;;;;;5095073;28;20054;-39
2021/06/07 05:10:46;;;;;;;8.52;4.78;;;19.20;72.80;;;;;;5095722;28;20095;-46
2021/06/07 05:13:12;;;;;;;7.03;4.32;;;19.30;72.80;;;;;;5094985;28;20028;-42
2021/06/07 05:15:37;;;;;;;7.80;4.47;;;19.30;72.30;;;;;;5095239;28;20051;-39
2021/06/07 05:18:03;;;;;;;7.85;3.90;;;19.40;71.80;;;;;;5095296;28;20313;-39
2021/06/07 05:20:29;;;;;;;7.80;4.15;;;19.40;71.70;;;;;;5095025;28;20103;-43
2021/06/07 05:22:57;;;;;;;7.70;4.32;;;19.40;71.70;;;;;;5095622;28;20039;-43
2021/06/07 05:25:24;;;;;;;8.80;5.18;;;19.50;71.70;;;;;;5094866;28;20099;-40
2021/06/07 05:27:52;;;;;;;9.35;5.15;;;19.50;71.60;;;;;;5095627;28;20020;-44
2021/06/07 05:30:19;;;;;;;7.43;4.50;;;19.60;71.40;;;;;;5094892;28;20024;-39
2021/06/07 05:32:45;;;;;;;8.88;4.75;;;19.60;71.10;;;;;;5095156;28;20024;-41
2021/06/07 05:35:12;;;;;;;9.68;4.90;;;19.60;71.00;;;;;;5096591;28;20031;-43
2021/06/07 05:37:38;;;;;;;10.45;5.13;;;19.60;71.30;;;;;;5099584;28;20044;-39
2021/06/07 05:40:06;;;;;;;7.97;5.38;;;19.60;71.30;;;;;;5093891;28;20035;-43
2021/06/07 05:42:34;;;;;;;10.77;8.00;;;19.60;71.20;;;;;;5099065;28;20036;-40
2021/06/07 05:44:59;;;;;;;9.38;5.50;;;19.60;71.00;;;;;;5098037;28;20039;-40
2021/06/07 05:47:25;;;;;;;9.68;5.43;;;19.70;71.20;;;;;;5099104;28;20416;-41
2021/06/07 05:49:51;;;;;;;16.60;8.55;;;19.70;71.10;;;;;;5098591;28;20416;-40
2021/06/07 05:52:16;;;;;;;9.80;4.80;;;19.80;70.90;;;;;;5098291;28;20468;-40
2021/06/07 05:54:42;;;;;;;8.27;5.00;;;19.90;71.00;;;;;;5098143;28;20028;-40
2021/06/07 05:57:09;;;;;;;13.07;8.98;;;19.90;71.00;;;;;;5098620;28;20489;-40
2021/06/07 05:59:36;;;;;;;7.88;4.93;;;20.00;70.60;;;;;;5098080;28;20032;-39
2021/06/07 06:02:06;;;;;;;12.32;9.57;;;20.10;70.60;;;;;;5098689;28;20040;-40
2021/06/07 06:04:33;;;;;;;16.08;9.75;;;20.20;70.10;;;;;;5098514;28;20059;-42
2021/06/07 06:07:03;;;;;;;9.73;5.18;;;20.20;69.70;;;;;;5098453;28;20104;-43
2021/06/07 06:09:29;;;;;;;10.65;7.20;;;20.30;69.50;;;;;;5098190;28;20316;-39
2021/06/07 06:11:56;;;;;;;11.75;4.18;;;20.40;69.40;;;;;;5098570;28;20044;-40
2021/06/07 06:14:22;;;;;;;13.68;5.20;;;20.50;69.10;;;;;;5097926;28;20439;-40
2021/06/07 06:16:48;;;;;;;16.92;8.05;;;20.50;68.50;;;;;;5097910;28;20040;-39
2021/06/07 06:19:14;;;;;;;9.10;5.72;;;20.50;68.40;;;;;;5097539;28;20032;-39
2021/06/07 06:21:40;;;;;;;7.18;5.95;;;20.60;68.50;;;;;;5097720;28;20399;-39
2021/06/07 06:24:11;;;;;;;14.18;8.73;;;20.60;68.50;;;;;;5097721;28;20028;-40
2021/06/07 06:26:37;;;;;;;;;;;20.70;68.30;;;;;;5097791;28;20420;-39
2021/06/07 06:29:04;;;;;;;10.38;7.07;;;20.70;68.50;;;;;;5097387;28;20025;-39
2021/06/07 06:31:29;;;;;;;14.48;6.35;;;20.80;68.00;;;;;;5096194;28;20078;-43
2021/06/07 06:33:55;;;;;;;8.77;7.07;;;20.90;67.40;;;;;;5094820;28;20516;-43
2021/06/07 06:36:21;;;;;;;6.07;4.60;;;21.00;67.00;;;;;;5098224;28;20035;-44
2021/06/07 06:38:46;;;;;;;11.07;6.60;;;21.00;66.90;;;;;;5097675;28;20024;-40
2021/06/07 06:41:12;;;;;;;6.95;3.88;;;21.20;66.40;;;;;;5097675;28;20051;-44
2021/06/07 06:43:38;;;;;;;8.52;5.32;;;21.30;66.10;;;;;;5097522;28;20031;-40
2021/06/07 06:46:04;;;;;;;8.75;4.10;;;21.30;65.60;;;;;;5096455;28;20046;-41
2021/06/07 06:48:32;;;;;;;5.85;4.00;;;21.40;64.80;;;;;;5097701;28;20107;-43
2021/06/07 06:50:58;;;;;;;9.13;5.60;;;21.50;64.60;;;;;;5097593;28;20067;-42
2021/06/07 06:53:24;;;;;;;8.60;5.80;;;21.50;64.20;;;;;;5097702;28;20430;-40
2021/06/07 06:55:50;;;;;;;11.98;7.13;;;21.60;64.00;;;;;;5097535;28;20036;-40
2021/06/07 06:58:17;;;;;;;6.65;3.88;;;21.60;63.70;;;;;;5097469;28;20024;-40
2021/06/07 07:00:44;;;;;;;5.88;3.60;;;21.70;63.40;;;;;;5097176;28;20408;-43
2021/06/07 07:03:13;;;;;;;10.77;6.38;;;21.70;63.30;;;;;;5097322;28;20047;-46
2021/06/07 07:05:40;;;;;;;5.90;4.05;;;21.70;63.40;;;;;;5097282;28;20036;-40
2021/06/07 07:08:06;;;;;;;10.93;6.93;;;21.70;63.40;;;;;;5097602;28;20028;-40
2021/06/07 07:10:33;;;;;;;8.07;3.72;;;21.70;63.70;;;;;;5096956;28;20024;-47
2021/06/07 07:12:59;;;;;;;4.38;3.53;;;21.80;64.00;;;;;;5097226;28;20025;-45
2021/06/07 07:15:25;;;;;;;13.50;4.50;;;21.80;63.60;;;;;;5096656;28;20377;-40
2021/06/07 07:17:50;;;;;;;10.35;5.43;;;21.80;63.60;;;;;;5097517;28;20035;-40
2021/06/07 07:20:16;;;;;;;5.50;3.70;;;21.80;63.50;;;;;;5096595;28;20495;-39
2021/06/07 07:22:42;;;;;;;7.70;5.00;;;21.80;63.80;;;;;;5096088;28;20088;-44
2021/06/07 07:25:10;;;;;;;8.90;6.30;;;21.80;63.80;;;;;;5096597;28;20076;-40
2021/06/07 07:27:36;;;;;;;7.00;5.45;;;21.80;63.70;;;;;;5097542;28;20424;-40
2021/06/07 07:30:11;;;;;;;7.97;4.85;;;21.80;63.80;;;;;;5096697;28;20028;-39
2021/06/07 07:32:38;;;;;;;8.00;4.80;;;21.80;63.70;;;;;;5095711;28;20027;-40
2021/06/07 07:35:05;;;;;;;8.15;5.43;;;21.80;63.40;;;;;;5096217;28;20028;-43
2021/06/07 07:37:33;;;;;;;6.00;4.20;;;21.90;63.70;;;;;;5096904;28;20401;-43
2021/06/07 07:39:59;;;;;;;13.23;5.60;;;21.90;63.60;;;;;;5096062;28;20032;-40
2021/06/07 07:42:25;;;;;;;14.63;8.43;;;21.90;63.40;;;;;;5097011;28;20043;-41
2021/06/07 07:44:50;;;;;;;13.32;8.23;;;21.90;63.20;;;;;;5096368;28;20105;-42
2021/06/07 07:47:18;;;;;;;8.75;6.95;;;22.00;63.10;;;;;;5096833;28;20050;-42
2021/06/07 07:49:45;;;;;;;6.38;3.95;;;22.00;63.10;;;;;;5096157;28;20323;-40
2021/06/07 07:52:11;;;;;;;7.38;5.53;;;22.10;63.20;;;;;;5096780;28;20025;-42
2021/06/07 07:54:36;;;;;;;12.10;9.00;;;22.10;63.00;;;;;;5096574;28;20032;-43
2021/06/07 07:57:04;;;;;;;11.25;6.85;;;22.20;62.90;;;;;;5096412;28;20347;-41
2021/06/07 07:59:30;;;;;;;10.43;7.13;;;22.20;62.70;;;;;;5095681;28;20032;-43
2021/06/07 08:01:56;;;;;;;10.73;7.25;;;22.30;62.70;;;;;;5095269;28;20346;-40
2021/06/07 08:04:22;;;;;;;5.40;4.47;;;22.40;62.60;;;;;;5095797;28;20085;-40
2021/06/07 08:06:47;;;;;;;6.18;4.95;;;22.40;62.40;;;;;;5096298;28;20040;-40
2021/06/07 08:09:13;;;;;;;5.28;3.90;;;22.50;62.50;;;;;;5095011;28;20052;-45
2021/06/07 08:11:39;;;;;;;7.93;6.20;;;22.50;62.50;;;;;;5096361;28;20028;-41
2021/06/07 08:14:05;;;;;;;9.13;4.00;;;22.60;62.10;;;;;;5095827;28;20058;-40
2021/06/07 08:16:31;;;;;;;8.95;4.05;;;22.70;62.40;;;;;;5091819;28;20040;-43
2021/06/07 08:18:57;;;;;;;9.02;4.85;;;22.80;62.00;;;;;;5096216;28;20020;-41
2021/06/07 08:21:23;;;;;;;5.00;3.90;;;22.80;61.60;;;;;;5095692;28;20301;-43
2021/06/07 08:23:48;;;;;;;10.30;3.90;;;22.90;61.40;;;;;;5095973;28;20028;-40
2021/06/07 08:26:14;;;;;;;5.05;3.70;;;22.90;61.00;;;;;;5095862;28;20028;-40
2021/06/07 08:28:40;;;;;;;4.50;3.63;;;22.90;60.40;;;;;;5095568;28;20420;-40
2021/06/07 08:31:06;;;;;;;5.68;3.63;;;23.00;60.50;;;;;;5095467;28;20043;-40
2021/06/07 08:33:35;;;;;;;9.75;6.60;;;23.00;60.40;;;;;;5095743;28;20024;-40
2021/06/07 08:36:04;;;;;;;23.05;16.95;;;23.10;60.70;;;;;;5095657;28;20036;-42
2021/06/07 08:38:30;;;;;;;18.98;14.55;;;23.10;60.20;;;;;;5095267;28;20024;-44
2021/06/07 08:40:56;;;;;;;14.40;7.88;;;23.10;60.10;;;;;;5095471;28;20081;-40
2021/06/07 08:43:25;;;;;;;12.55;8.52;;;23.20;60.30;;;;;;5095698;28;20024;-40
2021/06/07 08:45:51;;;;;;;7.10;5.07;;;23.20;59.80;;;;;;5094145;28;20078;-43
2021/06/07 08:48:18;;;;;;;5.88;3.90;;;23.20;59.60;;;;;;5095570;28;20039;-40
2021/06/07 08:50:44;;;;;;;10.35;7.40;;;23.30;59.80;;;;;;5095309;28;20424;-40
2021/06/07 08:53:10;;;;;;;12.15;7.18;;;23.30;59.60;;;;;;5095129;28;20040;-40
2021/06/07 08:55:38;;;;;;;10.65;7.88;;;23.30;59.20;;;;;;5095103;28;20059;-42
2021/06/07 08:58:05;;;;;;;6.70;5.45;;;23.30;59.10;;;;;;5095630;28;20039;-44
2021/06/07 09:00:38;;;;;;;11.35;7.30;;;23.30;59.20;;;;;;5095050;28;20047;-43
2021/06/07 09:03:09;;;;;;;6.55;4.65;;;23.30;59.10;;;;;;5095559;28;20358;-43
2021/06/07 09:05:36;;;;;;;6.00;4.15;;;23.30;58.90;;;;;;5095189;28;20073;-44
2021/06/07 09:08:05;;;;;;;4.00;3.38;;;23.30;59.00;;;;;;5094877;28;20060;-44
2021/06/07 09:10:37;;;;;;;5.53;3.25;;;23.30;59.20;;;;;;5092959;28;20354;-42
2021/06/07 09:13:07;;;;;;;7.65;6.60;;;23.20;58.50;;;;;;5094792;28;20028;-43
2021/06/07 09:15:39;;;;;;;6.78;4.18;;;23.20;58.80;;;;;;5095065;28;20040;-43
2021/06/07 09:18:11;;;;;;;6.53;3.53;;;23.20;59.40;;;;;;5095014;28;20447;-42
2021/06/07 09:20:39;;;;;;;12.43;6.07;;;23.20;58.30;;;;;;5093364;28;20032;-43
2021/06/07 09:23:08;;;;;;;7.68;5.18;;;23.20;58.60;;;;;;5094977;28;20032;-42
2021/06/07 09:25:37;;;;;;;9.77;5.38;;;23.20;58.50;;;;;;5094667;28;20417;-44
2021/06/07 09:28:19;;;;;;;7.20;4.75;;;23.20;58.20;;;;;;5093924;28;20371;-42
2021/06/07 09:30:57;;;;;;;3.17;2.65;;;23.20;57.90;;;;;;5095201;28;20115;-44
2021/06/07 09:33:30;;;;;;;6.32;2.83;;;23.20;58.10;;;;;;5094357;28;20032;-42
2021/06/07 09:36:33;;;;;;;6.32;3.53;;;23.20;57.10;;;;;;5094991;28;20038;-44
2021/06/07 09:39:05;;;;;;;4.22;3.28;;;23.20;57.50;;;;;;5094751;28;20029;-44
2021/06/07 09:41:51;;;;;;;3.65;2.70;;;23.20;57.40;;;;;;5095086;28;20364;-44
2021/06/07 09:44:24;;;;;;;14.70;3.63;;;23.30;57.10;;;;;;5094300;28;20040;-43
2021/06/07 09:46:52;;;;;;;3.10;2.40;;;23.30;56.70;;;;;;5095279;28;20024;-43
2021/06/07 09:49:21;;;;;;;3.15;2.50;;;23.40;56.30;;;;;;5094636;28;20024;-42
2021/06/07 09:51:56;;;;;;;4.35;2.03;;;23.50;56.70;;;;;;5095267;28;20311;-43
2021/06/07 09:54:23;;;;;;;4.18;2.42;;;23.60;55.50;;;;;;5094724;28;20423;-45
2021/06/07 09:56:58;;;;;;;3.63;2.20;;;23.70;55.80;;;;;;5095427;28;20111;-43
2021/06/07 09:59:27;;;;;;;4.05;1.95;;;23.70;55.20;;;;;;5094448;28;20028;-42
2021/06/07 10:01:55;;;;;;;2.35;2.00;;;23.70;55.10;;;;;;5095059;28;20064;-43
2021/06/07 10:04:21;;;;;;;5.07;2.92;;;23.80;55.10;;;;;;5094746;28;20039;-45
2021/06/07 10:06:47;;;;;;;2.60;2.28;;;23.90;55.20;;;;;;5095223;28;20354;-43
2021/06/07 10:09:18;;;;;;;3.65;2.40;;;24.00;55.30;;;;;;5093839;28;20358;-43
2021/06/07 10:11:45;;;;;;;2.30;2.10;;;24.10;55.20;;;;;;5094901;28;20112;-44
2021/06/07 10:14:19;;;;;;;4.13;2.80;;;24.20;54.30;;;;;;5094641;28;20717;-42
2021/06/07 10:17:02;;;;;;;3.08;2.40;;;24.20;53.80;;;;;;5095177;28;20361;-46
2021/06/07 10:22:03;;;;;;;3.28;1.95;;;24.40;54.50;;;;;;5097851;28;20063;-42
2021/06/07 10:24:29;;;;;;;3.17;2.30;;;24.50;53.50;;;;;;5098609;28;20024;-42
2021/06/07 10:26:55;;;;;;;2.88;2.53;;;24.60;53.00;;;;;;5098544;28;20032;-43
2021/06/07 10:29:22;;;;;;;3.05;2.67;;;24.70;53.10;;;;;;5098671;28;20233;-43
2021/06/07 10:31:48;;;;;;;3.35;2.40;;;24.80;53.30;;;;;;5098253;28;20032;-46
2021/06/07 10:34:14;;;;;;;2.95;2.20;;;24.80;52.60;;;;;;5098045;28;20312;-45
2021/06/07 10:36:39;;;;;;;3.17;2.60;;;24.90;52.60;;;;;;5098416;28;20040;-47
2021/06/07 10:41:42;;;;;;;2.30;2.10;;;24.90;52.90;;;;;;5098233;28;20032;-46
2021/06/07 10:44:09;;;;;;;3.83;2.40;;;24.90;52.70;;;;;;5097877;28;20035;-42
2021/06/07 10:46:44;;;;;;;3.67;2.10;;;24.90;52.40;;;;;;5097936;28;20024;-44
2021/06/07 10:49:32;;;;;;;7.88;2.38;;;24.90;52.80;;;;;;5097568;28;20028;-43
2021/06/07 10:52:28;;;;;;;8.20;2.58;;;24.90;53.10;;;;;;5097850;28;20306;-44
2021/06/07 10:54:59;;;;;;;4.32;2.55;;;24.80;52.20;;;;;;5097857;28;20091;-43
2021/06/07 10:57:34;;;;;;;8.73;2.60;;;24.60;53.40;;;;;;5097953;28;20047;-42
2021/06/07 11:00:07;;;;;;;2.78;2.20;;;24.40;53.80;;;;;;5097700;28;20103;-44
2021/06/07 11:02:35;;;;;;;1.88;1.77;;;24.30;54.00;;;;;;5092695;28;20028;-43
2021/06/07 11:05:15;;;;;;;2.92;2.20;;;24.10;54.40;;;;;;5082395;28;20040;-43
2021/06/07 11:07:44;;;;;;;6.35;2.72;;;23.90;55.00;;;;;;5077185;28;20040;-43
2021/06/07 11:10:22;;;;;;;4.30;2.45;;;23.60;55.70;;;;;;5076871;28;20416;-44
2021/06/07 11:12:53;;;;;;;4.22;2.78;;;23.40;57.00;;;;;;5076724;28;20032;-42
2021/06/07 11:15:30;;;;;;;5.20;2.90;;;23.20;58.80;;;;;;5076341;28;20355;-41
2021/06/07 11:18:24;;;;;;;3.47;3.00;;;23.00;59.60;;;;;;5076674;28;20424;-42
2021/06/07 11:20:56;;;;;;;4.75;3.33;;;22.80;61.30;;;;;;5077132;28;20370;-44
2021/06/07 11:23:35;;;;;;;5.85;3.00;;;22.60;61.50;;;;;;5075841;28;20036;-45
2021/06/07 11:26:02;;;;;;;5.65;2.33;;;22.40;61.70;;;;;;5076630;28;20404;-43
2021/06/07 11:28:33;;;;;;;4.38;2.35;;;22.30;61.80;;;;;;5074760;28;20401;-44
2021/06/07 11:31:00;;;;;;;2.72;2.17;;;22.20;61.70;;;;;;5076834;28;20298;-43
2021/06/07 11:33:26;;;;;;;3.55;2.13;;;22.00;62.30;;;;;;5075220;28;20409;-42
2021/06/07 11:35:53;;;;;;;3.22;2.08;;;21.90;62.70;;;;;;5076962;28;20378;-42
2021/06/07 11:38:40;;;;;;;3.92;2.20;;;21.80;62.80;;;;;;5076295;28;20036;-42
2021/06/07 11:41:37;;;;;;;10.15;5.63;;;21.70;62.70;;;;;;5076878;28;20043;-44
2021/06/07 11:44:03;;;;;;;4.15;2.17;;;21.60;63.10;;;;;;5076332;28;20327;-42
2021/06/07 11:46:32;;;;;;;2.75;2.10;;;21.60;62.90;;;;;;5076780;28;20032;-44
2021/06/07 11:49:16;;;;;;;4.82;2.10;;;21.60;63.70;;;;;;5075826;28;20120;-45
2021/06/07 11:51:44;;;;;;;3.97;2.20;;;21.50;63.50;;;;;;5076354;28;20055;-43
2021/06/07 11:54:25;;;;;;;11.30;3.83;;;21.60;63.30;;;;;;5076175;28;20033;-45
2021/06/07 11:56:58;;;;;;;11.88;3.45;;;21.60;63.70;;;;;;5076841;28;20321;-44
2021/06/07 11:59:32;;;;;;;4.13;1.80;;;21.60;63.60;;;;;;5076346;28;20031;-43
2021/06/07 12:06:13;;;;;;;3.95;2.40;;;22.00;62.00;;;;;;5074148;28;20048;-42
2021/06/07 12:08:39;;;;;;;4.15;2.50;;;22.40;62.40;;;;;;5075943;28;20050;-43
2021/06/07 12:11:06;;;;;;;4.88;2.35;;;22.80;60.80;;;;;;5075783;28;20055;-42
2021/06/07 12:13:44;;;;;;;3.03;2.50;;;23.10;58.70;;;;;;5076105;28;20035;-45
2021/06/07 12:16:16;;;;;;;12.68;2.50;;;23.50;58.60;;;;;;5500948;22;20026;-39
2021/06/07 12:18:43;;;;;;;4.25;2.75;;;23.80;57.10;;;;;;5032294;28;20041;-39
2021/06/07 12:21:17;;;;;;;7.82;4.18;;;24.20;55.20;;;;;;5036478;28;20294;-39
2021/06/07 12:24:01;;;;;;;3.78;2.92;;;24.40;55.20;;;;;;5036088;28;20155;-37
2021/06/07 12:29:20;;;;;;;5.65;4.40;;;25.10;53.70;;;;;;5036292;28;20024;-37
2021/06/07 12:32:04;;;;;;;4.97;3.45;;;25.40;53.60;;;;;;5035820;28;20029;-37
2021/06/07 12:34:30;;;;;;;5.43;3.40;;;25.70;53.50;;;;;;5035815;28;20029;-37
2021/06/07 12:36:55;;;;;;;9.50;3.67;;;26.00;53.20;;;;;;5035794;28;20095;-39
2021/06/07 12:39:21;;;;;;;9.32;6.15;;;26.20;53.20;;;;;;5035861;28;20061;-38
2021/06/07 12:41:47;;;;;;;5.53;3.70;;;26.50;52.00;;;;;;5035738;28;20083;-40
2021/06/07 12:44:13;;;;;;;8.43;4.93;;;26.60;52.00;;;;;;5034756;28;20037;-40
2021/06/07 12:46:55;;;;;;;7.65;5.03;;;26.60;51.80;;;;;;5035498;28;20033;-37
2021/06/07 12:49:26;;;;;;;6.65;3.92;;;26.40;51.70;;;;;;5035965;28;20694;-36
2021/06/07 12:52:05;;;;;;;6.40;4.43;;;26.30;52.60;;;;;;5035424;28;20393;-37
2021/06/07 12:54:33;;;;;;;6.07;3.93;;;26.10;53.20;;;;;;5035390;28;20037;-36
2021/06/07 12:57:03;;;;;;;7.65;4.68;;;25.90;53.70;;;;;;5035419;28;20409;-40
2021/06/07 12:59:34;;;;;;;8.60;4.25;;;25.70;54.00;;;;;;5035844;28;20029;-37
2021/06/07 13:02:00;;;;;;;5.88;4.30;;;25.60;54.90;;;;;;5045728;28;20033;-37
2021/06/07 13:04:33;;;;;;;5.95;4.35;;;25.40;54.90;;;;;;5035480;28;20306;-36